Time;durP1;ratioP1;P1;durP2;ratioP2;P2;SDS_P1;SDS_P2;PMS_P1;PMS_P2;Temp;Humidity;BMP_temperature;BMP_pressure;BME280_temperature;BME280_humidity;BME280_pressure;Samples;Min_cycle;Max_cycle;Signal;HPM_P1;HPM_P2
2021/04/14 00:02:05;;;;;;;4.90;3.90;;;4.70;97.10;;;;;;5014366;28;20669;-82
2021/04/14 00:04:32;;;;;;;3.95;3.65;;;4.60;97.20;;;;;;5010136;28;20591;-81
2021/04/14 00:07:00;;;;;;;6.35;4.10;;;4.60;97.30;;;;;;5011046;28;20213;-82
2021/04/14 00:09:28;;;;;;;3.80;3.53;;;4.60;97.40;;;;;;5012593;28;20675;-81
2021/04/14 00:11:54;;;;;;;3.70;3.50;;;4.50;97.40;;;;;;5009296;28;20850;-81
2021/04/14 00:14:21;;;;;;;5.70;3.95;;;4.40;97.40;;;;;;5009990;28;20703;-80
2021/04/14 00:16:48;;;;;;;4.13;3.88;;;4.40;97.50;;;;;;5015737;28;20204;-80
2021/04/14 00:19:14;;;;;;;4.78;4.38;;;4.40;97.60;;;;;;5009825;28;20704;-81
2021/04/14 00:21:41;;;;;;;4.20;3.80;;;4.40;97.60;;;;;;5009991;28;21024;-80
2021/04/14 00:24:10;;;;;;;4.13;3.83;;;4.30;97.60;;;;;;5015274;28;20220;-80
2021/04/14 00:26:38;;;;;;;4.40;4.10;;;4.30;97.70;;;;;;5009250;28;20664;-81
2021/04/14 00:29:05;;;;;;;4.20;3.83;;;4.30;97.70;;;;;;5010796;28;20236;-80
2021/04/14 00:31:37;;;;;;;4.00;3.75;;;4.30;97.70;;;;;;5008763;28;20658;-80
2021/04/14 00:34:08;;;;;;;4.13;3.83;;;4.30;98.10;;;;;;5010393;28;20618;-79
2021/04/14 00:36:35;;;;;;;4.25;3.95;;;4.20;97.80;;;;;;5005581;28;20248;-82
2021/04/14 00:39:03;;;;;;;5.15;4.30;;;4.20;97.80;;;;;;5010003;28;20216;-81
2021/04/14 00:41:30;;;;;;;4.40;4.00;;;4.20;97.80;;;;;;5010525;28;20198;-80
2021/04/14 00:43:58;;;;;;;4.85;4.43;;;4.20;97.80;;;;;;5013433;28;20530;-81
2021/04/14 00:46:25;;;;;;;4.90;3.78;;;4.20;97.90;;;;;;5009339;28;20201;-80
2021/04/14 00:48:51;;;;;;;4.18;3.88;;;4.20;97.90;;;;;;5009538;28;20450;-81
2021/04/14 00:51:19;;;;;;;4.00;3.70;;;4.20;97.90;;;;;;5009018;28;20218;-80
2021/04/14 00:53:47;;;;;;;4.38;3.95;;;4.10;98.00;;;;;;5011977;28;20243;-81
2021/04/14 00:56:14;;;;;;;4.45;4.05;;;4.10;98.30;;;;;;5008832;28;20613;-82
2021/04/14 00:58:40;;;;;;;3.90;3.55;;;4.10;98.00;;;;;;5009919;28;20869;-80
2021/04/14 01:01:08;;;;;;;3.97;3.70;;;4.10;98.00;;;;;;5010516;28;20211;-82
2021/04/14 01:03:36;;;;;;;4.18;3.83;;;4.10;98.00;;;;;;5009785;28;20236;-81
2021/04/14 01:06:07;;;;;;;4.38;4.00;;;4.10;98.00;;;;;;5009453;28;20202;-79
2021/04/14 01:08:34;;;;;;;4.10;3.70;;;4.10;98.00;;;;;;5014857;28;20370;-80
2021/04/14 01:11:01;;;;;;;4.47;4.18;;;4.10;98.00;;;;;;5007159;28;20210;-80
2021/04/14 01:13:27;;;;;;;5.30;4.88;;;4.10;98.10;;;;;;5004245;28;20248;-80
2021/04/14 01:15:54;;;;;;;4.80;4.40;;;4.00;98.10;;;;;;5008669;28;20202;-79
2021/04/14 01:18:38;;;;;;;5.47;4.28;;;4.00;98.10;;;;;;5007562;28;20212;-79
2021/04/14 01:21:07;;;;;;;4.85;4.38;;;4.00;98.20;;;;;;5014581;28;20206;-80
2021/04/14 01:23:37;;;;;;;4.60;4.10;;;4.00;98.20;;;;;;5008275;28;20261;-81
2021/04/14 01:26:06;;;;;;;4.93;4.53;;;4.00;98.20;;;;;;5009768;28;20197;-80
2021/04/14 01:28:35;;;;;;;4.68;4.20;;;4.00;98.20;;;;;;5007982;28;20367;-79
2021/04/14 01:31:03;;;;;;;6.90;4.70;;;4.00;98.20;;;;;;5011687;28;20212;-82
2021/04/14 01:33:32;;;;;;;3.95;3.55;;;4.00;98.10;;;;;;5008537;28;20208;-79
2021/04/14 01:36:00;;;;;;;4.93;3.72;;;4.00;98.10;;;;;;5013715;28;20201;-79
2021/04/14 01:38:28;;;;;;;4.22;3.92;;;4.00;98.10;;;;;;5007936;28;20323;-80
2021/04/14 01:40:55;;;;;;;5.82;4.68;;;4.00;98.20;;;;;;5011714;28;20205;-82
2021/04/14 01:43:22;;;;;;;5.15;4.47;;;3.90;98.20;;;;;;5009687;28;20201;-81
2021/04/14 01:45:49;;;;;;;3.60;3.30;;;3.90;98.20;;;;;;5010430;28;20193;-79
2021/04/14 01:48:17;;;;;;;4.40;4.00;;;3.90;98.10;;;;;;5010896;28;20241;-81
2021/04/14 01:50:45;;;;;;;5.18;3.88;;;3.80;98.10;;;;;;5015350;28;20204;-81
2021/04/14 01:53:14;;;;;;;3.85;3.63;;;3.80;98.20;;;;;;5012022;28;20223;-79
2021/04/14 01:55:41;;;;;;;6.03;4.43;;;3.80;98.20;;;;;;5012812;28;20672;-80
2021/04/14 01:58:09;;;;;;;5.78;4.43;;;3.80;98.30;;;;;;5016672;28;20216;-80
2021/04/14 02:00:42;;;;;;;4.40;4.10;;;3.80;98.30;;;;;;5012665;28;20310;-80
2021/04/14 02:03:08;;;;;;;5.00;4.60;;;3.80;98.40;;;;;;5017548;28;20296;-81
2021/04/14 02:05:36;;;;;;;4.75;4.35;;;3.80;98.30;;;;;;5011472;28;20258;-81
2021/04/14 02:08:03;;;;;;;6.30;4.43;;;3.80;98.30;;;;;;5018057;28;20513;-79
2021/04/14 02:10:32;;;;;;;4.80;4.45;;;3.80;98.20;;;;;;5011835;28;20208;-79
2021/04/14 02:13:01;;;;;;;4.70;3.90;;;3.80;98.20;;;;;;5011312;28;20264;-81
2021/04/14 02:15:31;;;;;;;5.22;4.15;;;3.70;98.20;;;;;;5007906;28;20198;-80
2021/04/14 02:17:58;;;;;;;4.63;4.32;;;3.70;98.20;;;;;;5012753;28;20209;-80
2021/04/14 02:20:26;;;;;;;5.07;4.68;;;3.70;98.30;;;;;;5017457;28;20217;-80
2021/04/14 02:22:53;;;;;;;4.28;3.97;;;3.70;98.30;;;;;;5011262;28;20213;-82
2021/04/14 02:25:22;;;;;;;4.90;4.40;;;3.70;98.70;;;;;;5015311;28;20202;-79
2021/04/14 02:27:49;;;;;;;4.32;3.80;;;3.70;98.40;;;;;;5011519;28;20228;-81
2021/04/14 02:30:20;;;;;;;4.95;4.55;;;3.70;98.40;;;;;;5009211;28;20249;-81
2021/04/14 02:32:47;;;;;;;4.85;4.45;;;3.60;98.30;;;;;;5013885;28;20258;-81
2021/04/14 02:35:14;;;;;;;4.40;4.00;;;3.60;98.30;;;;;;5012069;28;20278;-81
2021/04/14 02:37:42;;;;;;;4.50;4.15;;;3.60;98.30;;;;;;5015202;28;20260;-81
2021/04/14 02:40:10;;;;;;;4.55;4.10;;;3.60;98.40;;;;;;5016644;28;20208;-80
2021/04/14 02:42:40;;;;;;;4.38;3.95;;;3.50;98.30;;;;;;5010945;28;20215;-81
2021/04/14 02:45:08;;;;;;;4.57;4.28;;;3.50;98.40;;;;;;5012612;28;20216;-81
2021/04/14 02:47:35;;;;;;;4.43;4.05;;;3.60;98.40;;;;;;5017051;28;20509;-81
2021/04/14 02:50:03;;;;;;;5.18;4.68;;;3.60;98.40;;;;;;5011511;28;20201;-81
2021/04/14 02:52:29;;;;;;;5.53;4.25;;;3.60;98.40;;;;;;5013559;28;20325;-80
2021/04/14 02:54:56;;;;;;;4.30;4.00;;;3.60;98.50;;;;;;5011752;28;20649;-80
2021/04/14 02:57:22;;;;;;;5.28;4.63;;;3.60;98.60;;;;;;5012126;28;20222;-80
2021/04/14 02:59:48;;;;;;;5.25;4.30;;;3.60;98.60;;;;;;5011141;28;20217;-80
2021/04/14 03:02:15;;;;;;;5.68;4.43;;;3.60;98.60;;;;;;5009855;28;20238;-81
2021/04/14 03:04:42;;;;;;;5.10;4.70;;;3.60;98.50;;;;;;5016231;28;20582;-80
2021/04/14 03:07:09;;;;;;;6.22;4.30;;;3.70;98.50;;;;;;5009511;28;20288;-79
2021/04/14 03:09:36;;;;;;;4.13;3.83;;;3.60;98.50;;;;;;5011745;28;20231;-81
2021/04/14 03:12:03;;;;;;;7.95;4.78;;;3.60;98.50;;;;;;5014629;28;20308;-79
2021/04/14 03:14:30;;;;;;;6.05;4.60;;;3.60;98.50;;;;;;5010338;28;20291;-80
2021/04/14 03:16:57;;;;;;;8.32;4.57;;;3.50;98.50;;;;;;5010460;28;20290;-82
2021/04/14 03:19:23;;;;;;;7.13;4.72;;;3.50;98.50;;;;;;5011675;28;20283;-81
2021/04/14 03:21:50;;;;;;;6.55;4.50;;;3.50;98.60;;;;;;5014901;28;20700;-81
2021/04/14 03:24:17;;;;;;;4.93;4.47;;;3.50;98.60;;;;;;5011775;28;20209;-79
2021/04/14 03:26:43;;;;;;;5.13;4.55;;;3.50;98.70;;;;;;5016161;28;20201;-79
2021/04/14 03:29:10;;;;;;;6.30;5.72;;;3.50;98.70;;;;;;5009668;28;20362;-80
2021/04/14 03:31:37;;;;;;;6.53;5.00;;;3.60;98.70;;;;;;5012257;28;20218;-79
2021/04/14 03:34:04;;;;;;;4.70;4.30;;;3.60;98.90;;;;;;5012907;28;20226;-81
2021/04/14 03:36:31;;;;;;;5.72;4.85;;;3.60;98.90;;;;;;5010429;28;20200;-80
2021/04/14 03:38:58;;;;;;;5.38;4.40;;;3.60;98.90;;;;;;5006969;28;20235;-81
2021/04/14 03:41:27;;;;;;;6.53;5.22;;;3.60;98.80;;;;;;5013451;28;20594;-81
2021/04/14 03:43:55;;;;;;;5.35;4.95;;;3.60;98.90;;;;;;5009964;28;20734;-81
2021/04/14 03:46:22;;;;;;;5.60;5.05;;;3.60;99.00;;;;;;5015717;28;20198;-80
2021/04/14 03:48:49;;;;;;;7.00;5.75;;;3.60;99.00;;;;;;5009746;28;20224;-80
2021/04/14 03:51:16;;;;;;;5.18;4.60;;;3.60;99.00;;;;;;5012451;28;20208;-79
2021/04/14 03:53:43;;;;;;;9.00;4.45;;;3.60;99.10;;;;;;5011844;28;20201;-79
2021/04/14 03:56:11;;;;;;;5.03;4.72;;;3.60;99.10;;;;;;4998597;28;20212;-80
2021/04/14 03:58:40;;;;;;;6.28;5.72;;;3.60;99.10;;;;;;5015485;28;20204;-81
2021/04/14 04:01:09;;;;;;;5.05;4.65;;;3.60;99.10;;;;;;5008614;28;20212;-81
2021/04/14 04:03:36;;;;;;;4.93;4.53;;;3.60;99.20;;;;;;5007250;28;20200;-81
2021/04/14 04:06:03;;;;;;;7.32;5.10;;;3.60;99.30;;;;;;5009293;28;20784;-80
2021/04/14 04:08:30;;;;;;;5.78;5.30;;;3.60;99.30;;;;;;5009057;28;20232;-80
2021/04/14 04:10:58;;;;;;;9.15;5.53;;;3.60;99.60;;;;;;5009545;28;20224;-81
2021/04/14 04:13:26;;;;;;;5.30;4.90;;;3.60;99.40;;;;;;5013020;28;20513;-81
2021/04/14 04:15:54;;;;;;;5.70;5.10;;;3.60;99.40;;;;;;5008936;28;20236;-81
2021/04/14 04:18:21;;;;;;;7.93;4.82;;;3.50;99.30;;;;;;5010265;28;20343;-80
2021/04/14 04:20:48;;;;;;;5.75;5.25;;;3.50;99.30;;;;;;5011206;28;20245;-79
2021/04/14 04:23:14;;;;;;;5.05;4.63;;;3.50;99.40;;;;;;5009278;28;20209;-80
2021/04/14 04:25:42;;;;;;;6.32;5.32;;;3.50;99.40;;;;;;5015122;28;20199;-81
2021/04/14 04:28:10;;;;;;;5.63;5.13;;;3.50;99.40;;;;;;5009571;28;20227;-80
2021/04/14 04:30:37;;;;;;;6.10;5.50;;;3.50;99.40;;;;;;5009713;28;20204;-79
2021/04/14 04:33:06;;;;;;;5.22;4.82;;;3.50;99.40;;;;;;5011901;28;20204;-82
2021/04/14 04:35:34;;;;;;;6.55;4.70;;;3.50;99.50;;;;;;5009362;28;20236;-81
2021/04/14 04:38:01;;;;;;;6.07;5.47;;;3.50;99.60;;;;;;5007913;28;20571;-80
2021/04/14 04:40:28;;;;;;;5.45;4.95;;;3.50;99.60;;;;;;5005706;28;20197;-81
2021/04/14 04:42:55;;;;;;;6.38;5.63;;;3.60;99.70;;;;;;5012369;28;20288;-80
2021/04/14 04:45:24;;;;;;;7.63;6.57;;;3.60;99.70;;;;;;5011318;28;20590;-81
2021/04/14 04:47:50;;;;;;;7.50;6.38;;;3.60;99.70;;;;;;5010732;28;20354;-80
2021/04/14 04:50:20;;;;;;;7.00;6.30;;;3.60;99.80;;;;;;5010845;28;20215;-79
2021/04/14 04:52:47;;;;;;;7.15;6.43;;;3.60;99.90;;;;;;5011632;28;20205;-81
2021/04/14 04:55:14;;;;;;;7.03;6.25;;;3.70;99.90;;;;;;5008785;28;20659;-79
2021/04/14 04:57:40;;;;;;;6.90;5.30;;;3.70;99.90;;;;;;5012579;28;20652;-81
2021/04/14 05:00:08;;;;;;;10.68;6.25;;;3.80;99.90;;;;;;5009796;28;20270;-80
2021/04/14 05:02:34;;;;;;;6.38;5.88;;;3.90;99.90;;;;;;5009689;28;20206;-80
2021/04/14 05:05:02;;;;;;;6.15;5.63;;;3.80;99.80;;;;;;5009367;28;20205;-81
2021/04/14 05:07:29;;;;;;;7.32;5.80;;;3.80;99.90;;;;;;5011870;28;20268;-80
2021/04/14 05:09:55;;;;;;;7.03;5.75;;;3.80;99.90;;;;;;5006960;28;20577;-80
2021/04/14 05:12:23;;;;;;;6.18;5.68;;;3.80;99.90;;;;;;5009114;28;20603;-80
2021/04/14 05:14:51;;;;;;;6.63;6.13;;;3.90;99.90;;;;;;5012601;28;20414;-81
2021/04/14 05:17:18;;;;;;;6.78;6.07;;;3.90;99.90;;;;;;5015600;28;20267;-81
2021/04/14 05:19:45;;;;;;;6.90;6.20;;;3.90;99.90;;;;;;5008598;28;20192;-80
2021/04/14 05:22:12;;;;;;;5.95;5.38;;;4.00;99.90;;;;;;5013138;28;20220;-81
2021/04/14 05:24:39;;;;;;;7.25;6.20;;;4.00;99.90;;;;;;5013180;28;20212;-80
2021/04/14 05:27:08;;;;;;;6.63;6.00;;;4.00;99.90;;;;;;5006738;28;20556;-81
2021/04/14 05:29:34;;;;;;;6.20;5.60;;;4.10;99.90;;;;;;5009861;28;20227;-81
2021/04/14 05:32:02;;;;;;;6.75;5.13;;;4.00;99.90;;;;;;5012223;28;20239;-80
2021/04/14 05:34:28;;;;;;;5.60;5.10;;;4.00;99.90;;;;;;5002176;28;20240;-80
2021/04/14 05:36:54;;;;;;;5.43;5.03;;;4.00;99.90;;;;;;4992478;28;20199;-79
2021/04/14 05:39:21;;;;;;;6.75;5.90;;;4.00;99.90;;;;;;5001087;28;20295;-80
2021/04/14 05:41:48;;;;;;;6.28;5.47;;;4.00;99.90;;;;;;5003062;28;20305;-79
2021/04/14 05:44:14;;;;;;;6.35;5.75;;;4.10;99.90;;;;;;5004695;28;20204;-79
2021/04/14 05:46:41;;;;;;;6.55;5.97;;;4.10;99.90;;;;;;5003168;28;20196;-81
2021/04/14 05:49:07;;;;;;;7.60;6.75;;;4.10;99.90;;;;;;5003990;28;20232;-80
2021/04/14 05:51:34;;;;;;;7.15;6.45;;;4.10;99.90;;;;;;5001247;28;22213;-79
2021/04/14 05:54:01;;;;;;;7.43;6.72;;;4.20;99.90;;;;;;5000015;28;20889;-81
2021/04/14 05:56:28;;;;;;;7.43;6.70;;;4.20;99.90;;;;;;5001273;28;20224;-80
2021/04/14 05:58:55;;;;;;;13.20;7.90;;;4.30;99.90;;;;;;5003480;28;20200;-81
2021/04/14 06:01:25;;;;;;;6.53;5.93;;;4.30;99.90;;;;;;4997999;28;20530;-81
2021/04/14 06:03:51;;;;;;;6.40;5.80;;;4.30;99.90;;;;;;5000480;28;20342;-80
2021/04/14 06:06:19;;;;;;;6.90;6.30;;;4.30;99.90;;;;;;4997018;28;20209;-80
2021/04/14 06:08:46;;;;;;;7.10;6.43;;;4.40;99.90;;;;;;5003477;28;20259;-80
2021/04/14 06:11:13;;;;;;;12.35;7.97;;;4.40;99.90;;;;;;5002262;28;20707;-81
2021/04/14 06:13:40;;;;;;;7.50;6.75;;;4.50;99.90;;;;;;5004807;28;20204;-79
2021/04/14 06:16:10;;;;;;;9.05;6.75;;;4.50;99.90;;;;;;4999033;28;21074;-80
2021/04/14 06:18:36;;;;;;;9.52;7.38;;;4.50;99.90;;;;;;5000266;28;20436;-80
2021/04/14 06:21:04;;;;;;;10.38;7.90;;;4.60;99.90;;;;;;5000592;28;20709;-80
2021/04/14 06:23:30;;;;;;;8.95;8.07;;;4.60;99.90;;;;;;5008298;28;21020;-79
2021/04/14 06:29:19;;;;;;;12.55;8.25;;;4.80;99.90;;;;;;5003788;28;20240;-82
2021/04/14 06:31:46;;;;;;;9.95;8.25;;;4.90;99.90;;;;;;5000239;28;20201;-79
2021/04/14 06:34:15;;;;;;;12.88;7.25;;;4.90;99.90;;;;;;5000695;28;20332;-82
2021/04/14 06:36:43;;;;;;;8.75;6.57;;;5.00;99.90;;;;;;5005171;28;20195;-81
2021/04/14 06:39:11;;;;;;;6.80;6.18;;;5.10;99.90;;;;;;5006252;28;20304;-79
2021/04/14 06:41:57;;;;;;;6.85;6.13;;;5.10;99.90;;;;;;5005664;28;20670;-80
2021/04/14 06:44:35;;;;;;;9.18;7.28;;;5.20;99.90;;;;;;5011610;28;20300;-81
2021/04/14 06:47:04;;;;;;;11.10;6.70;;;5.30;99.90;;;;;;5004944;28;20216;-80
2021/04/14 06:49:37;;;;;;;8.35;6.90;;;5.40;99.90;;;;;;5010546;28;20317;-80
2021/04/14 06:52:08;;;;;;;8.48;6.75;;;5.50;99.90;;;;;;5005038;28;20206;-81
2021/04/14 06:54:47;;;;;;;9.27;6.80;;;5.60;99.90;;;;;;5006613;28;20256;-80
2021/04/14 06:57:17;;;;;;;8.35;6.90;;;5.60;99.90;;;;;;5005330;28;20210;-81
2021/04/14 06:59:47;;;;;;;8.60;6.10;;;5.70;99.90;;;;;;5004857;28;20250;-79
2021/04/14 07:02:20;;;;;;;8.50;6.70;;;5.80;99.90;;;;;;5011857;28;20207;-81
2021/04/14 07:04:50;;;;;;;13.25;8.20;;;5.90;99.90;;;;;;5004973;28;20230;-81
2021/04/14 07:07:22;;;;;;;9.35;6.60;;;6.00;99.90;;;;;;5004480;28;20454;-79
2021/04/14 07:09:51;;;;;;;9.32;6.50;;;6.10;99.90;;;;;;5004072;28;20234;-81
2021/04/14 07:12:20;;;;;;;8.85;6.50;;;6.20;99.90;;;;;;5002649;28;20225;-81
2021/04/14 07:14:47;;;;;;;7.75;6.15;;;6.30;99.90;;;;;;5003970;28;20631;-79
2021/04/14 07:17:21;;;;;;;14.38;6.20;;;6.40;99.90;;;;;;5007040;28;20206;-80
2021/04/14 07:20:25;;;;;;;10.95;5.93;;;6.50;99.90;;;;;;5006713;28;20252;-81
2021/04/14 07:23:01;;;;;;;6.82;6.05;;;6.60;99.90;;;;;;4942270;28;20234;-81
2021/04/14 07:25:36;;;;;;;12.00;8.13;;;6.70;99.90;;;;;;5000930;28;20194;-79
2021/04/14 07:28:17;;;;;;;10.85;7.50;;;6.80;99.90;;;;;;5003755;28;20263;-80
2021/04/14 07:30:52;;;;;;;7.60;6.90;;;6.80;99.90;;;;;;5004406;28;20205;-80
2021/04/14 07:33:27;;;;;;;10.70;7.20;;;6.90;99.90;;;;;;5006559;28;20301;-79
2021/04/14 07:36:02;;;;;;;9.82;6.93;;;7.00;99.90;;;;;;5009685;28;20210;-81
2021/04/14 07:38:37;;;;;;;7.65;6.85;;;7.10;99.90;;;;;;5004074;28;20220;-81
2021/04/14 07:41:14;;;;;;;11.45;7.60;;;7.20;99.90;;;;;;5003600;28;20261;-78
2021/04/14 07:43:52;;;;;;;11.18;6.72;;;7.20;99.90;;;;;;5004506;28;20205;-82
2021/04/14 07:46:22;;;;;;;10.68;6.53;;;7.40;99.90;;;;;;5003733;28;20202;-81
2021/04/14 07:48:52;;;;;;;12.18;7.55;;;7.40;99.90;;;;;;5001347;28;20222;-79
2021/04/14 07:51:21;;;;;;;6.88;6.25;;;7.40;99.20;;;;;;5004587;28;20212;-79
2021/04/14 07:53:59;;;;;;;9.30;6.30;;;7.30;98.20;;;;;;4999654;28;20198;-80
2021/04/14 07:56:25;;;;;;;11.52;7.70;;;7.40;98.60;;;;;;5002149;28;20210;-79
2021/04/14 07:59:06;;;;;;;13.82;8.38;;;7.50;99.10;;;;;;5003958;28;20199;-80
2021/04/14 08:01:35;;;;;;;11.25;7.10;;;7.50;98.60;;;;;;5006996;28;20202;-79
2021/04/14 08:04:15;;;;;;;10.25;8.98;;;7.50;98.40;;;;;;5003293;28;20209;-81
2021/04/14 08:06:42;;;;;;;14.43;8.32;;;7.60;98.60;;;;;;5001401;28;20767;-80
2021/04/14 08:09:12;;;;;;;12.38;7.25;;;7.70;98.60;;;;;;5001378;28;20245;-80
2021/04/14 08:11:39;;;;;;;8.10;7.15;;;7.70;98.40;;;;;;5004088;28;20248;-79
2021/04/14 08:14:11;;;;;;;8.73;7.40;;;7.80;98.60;;;;;;5006769;28;20209;-80
2021/04/14 08:16:41;;;;;;;10.63;8.55;;;7.80;98.70;;;;;;5000153;28;20212;-80
2021/04/14 08:19:12;;;;;;;14.80;9.00;;;7.80;98.80;;;;;;4996309;28;20213;-80
2021/04/14 08:21:52;;;;;;;9.15;8.05;;;7.90;99.20;;;;;;5001803;28;20195;-79
2021/04/14 08:24:27;;;;;;;8.98;7.85;;;7.90;98.90;;;;;;4999681;28;20552;-79
2021/04/14 08:26:54;;;;;;;9.40;8.55;;;8.00;99.00;;;;;;5003443;28;20260;-79
2021/04/14 08:29:21;;;;;;;13.55;9.20;;;8.00;98.90;;;;;;5004535;28;20231;-80
2021/04/14 08:31:49;;;;;;;13.88;11.00;;;8.00;99.00;;;;;;5002951;28;20199;-79
2021/04/14 08:34:20;;;;;;;14.50;9.80;;;8.10;99.00;;;;;;4999413;28;20324;-80
2021/04/14 08:36:53;;;;;;;12.27;9.18;;;8.10;99.20;;;;;;5000346;28;20206;-81
2021/04/14 08:39:27;;;;;;;13.68;9.70;;;8.20;99.10;;;;;;4998076;28;20214;-79
2021/04/14 08:42:10;;;;;;;13.55;9.23;;;8.30;99.30;;;;;;5002653;28;20585;-81
2021/04/14 08:44:38;;;;;;;14.75;11.07;;;8.30;99.40;;;;;;5000906;28;20207;-80
2021/04/14 08:47:26;;;;;;;12.48;10.60;;;8.30;99.30;;;;;;5003481;28;20248;-81
2021/04/14 08:50:00;;;;;;;20.83;11.18;;;8.30;99.60;;;;;;4992406;28;20239;-80
2021/04/14 08:52:29;;;;;;;13.40;9.40;;;8.40;99.70;;;;;;5005132;28;20218;-79
2021/04/14 08:54:58;;;;;;;16.58;9.35;;;8.40;99.90;;;;;;5002794;28;20211;-78
2021/04/14 08:57:25;;;;;;;10.52;8.85;;;8.50;99.90;;;;;;5003040;28;20207;-79
2021/04/14 08:59:51;;;;;;;13.90;9.65;;;8.60;99.90;;;;;;5001667;28;20218;-81
2021/04/14 09:02:20;;;;;;;16.05;10.07;;;8.70;99.90;;;;;;4998927;28;20212;-81
2021/04/14 09:04:49;;;;;;;18.50;12.38;;;8.90;99.50;;;;;;5004304;28;20200;-76
2021/04/14 09:07:17;;;;;;;16.17;11.73;;;8.90;99.40;;;;;;5000691;28;20209;-78
2021/04/14 09:09:48;;;;;;;15.07;10.65;;;8.90;99.80;;;;;;5007043;28;20231;-78
2021/04/14 09:12:15;;;;;;;17.88;10.23;;;8.90;99.90;;;;;;5004250;28;20217;-78
2021/04/14 09:14:41;;;;;;;17.02;10.23;;;8.90;99.90;;;;;;5001392;28;20886;-78
2021/04/14 09:17:17;;;;;;;16.80;11.35;;;8.90;99.90;;;;;;5006578;28;20207;-79
2021/04/14 09:19:45;;;;;;;15.70;11.10;;;9.00;99.90;;;;;;5003486;28;20261;-80
2021/04/14 09:22:21;;;;;;;11.75;9.82;;;9.00;99.90;;;;;;5003149;28;20203;-79
2021/04/14 09:24:51;;;;;;;10.85;8.77;;;9.10;99.90;;;;;;5005360;28;20208;-79
2021/04/14 09:27:24;;;;;;;10.98;9.15;;;9.10;99.80;;;;;;5000909;28;20241;-77
2021/04/14 09:30:09;;;;;;;14.85;10.52;;;9.20;99.80;;;;;;5002660;28;20223;-77
2021/04/14 09:32:51;;;;;;;10.65;8.55;;;9.20;99.60;;;;;;5003295;28;20257;-80
2021/04/14 09:35:22;;;;;;;11.32;8.60;;;9.30;99.40;;;;;;5004011;28;20583;-79
2021/04/14 09:37:48;;;;;;;9.98;8.65;;;9.40;99.30;;;;;;5004976;28;20200;-79
2021/04/14 09:40:28;;;;;;;12.65;9.43;;;9.40;98.70;;;;;;5009901;28;20240;-79
2021/04/14 09:42:54;;;;;;;12.48;9.02;;;9.50;98.70;;;;;;5004316;28;20192;-80
2021/04/14 09:45:34;;;;;;;13.90;9.45;;;9.60;98.80;;;;;;5006395;28;20203;-79
2021/04/14 09:48:13;;;;;;;14.43;9.48;;;9.70;98.80;;;;;;5005502;28;20205;-80
2021/04/14 09:50:43;;;;;;;13.50;9.10;;;9.70;98.40;;;;;;5004146;28;20202;-80
2021/04/14 09:53:21;;;;;;;8.48;7.53;;;9.80;98.20;;;;;;5003520;28;20826;-79
2021/04/14 09:55:52;;;;;;;13.02;9.52;;;9.90;98.10;;;;;;5007922;28;20201;-78
2021/04/14 09:58:27;;;;;;;12.43;8.98;;;9.90;96.80;;;;;;5003528;28;20777;-78
2021/04/14 10:00:57;;;;;;;12.63;9.10;;;9.90;96.40;;;;;;5007322;28;20226;-78
2021/04/14 10:03:30;;;;;;;13.00;8.85;;;10.00;96.20;;;;;;4996407;28;20201;-77
2021/04/14 10:06:05;;;;;;;14.45;8.68;;;10.20;96.30;;;;;;4998282;28;20226;-78
2021/04/14 10:08:32;;;;;;;13.32;9.68;;;10.30;96.40;;;;;;5003124;28;20231;-77
2021/04/14 10:10:59;;;;;;;14.15;9.30;;;10.40;96.40;;;;;;5002904;28;20736;-79
2021/04/14 10:13:29;;;;;;;13.48;9.38;;;10.50;96.30;;;;;;5012172;28;20205;-79
2021/04/14 10:15:57;;;;;;;14.40;9.70;;;10.60;96.40;;;;;;5004408;28;20224;-79
2021/04/14 10:18:25;;;;;;;12.20;9.50;;;10.70;96.30;;;;;;5000722;28;20395;-77
2021/04/14 10:20:54;;;;;;;10.43;8.70;;;10.80;96.20;;;;;;4998074;28;20206;-79
2021/04/14 10:23:23;;;;;;;9.93;8.68;;;11.00;95.80;;;;;;5002706;28;20247;-78
2021/04/14 10:25:49;;;;;;;11.05;9.45;;;11.10;95.50;;;;;;5006897;28;20225;-79
2021/04/14 10:28:23;;;;;;;13.38;8.57;;;11.20;94.10;;;;;;5008683;28;20210;-79
2021/04/14 10:30:59;;;;;;;15.18;10.63;;;11.30;94.40;;;;;;5004924;28;20198;-80
2021/04/14 10:33:26;;;;;;;15.40;9.55;;;11.40;94.30;;;;;;5001796;28;20233;-78
2021/04/14 10:35:54;;;;;;;13.88;8.93;;;11.50;94.30;;;;;;5006962;28;20209;-79
2021/04/14 10:38:28;;;;;;;10.47;8.73;;;11.50;94.10;;;;;;5003930;28;20198;-77
2021/04/14 10:40:55;;;;;;;13.85;8.15;;;11.40;93.10;;;;;;5006542;28;20475;-78
2021/04/14 10:43:25;;;;;;;10.55;7.75;;;11.40;93.10;;;;;;5007573;28;20217;-79
2021/04/14 10:46:03;;;;;;;18.98;8.10;;;11.30;92.30;;;;;;5000980;28;20548;-78
2021/04/14 10:48:31;;;;;;;9.38;7.00;;;11.30;91.50;;;;;;5004301;28;20227;-79
2021/04/14 10:51:07;;;;;;;8.30;7.03;;;11.10;91.40;;;;;;5005265;28;20708;-80
2021/04/14 10:53:36;;;;;;;13.85;7.90;;;10.90;91.60;;;;;;5006162;28;20245;-78
2021/04/14 10:56:04;;;;;;;9.65;8.65;;;10.80;91.80;;;;;;5007808;28;20283;-79
2021/04/14 10:58:32;;;;;;;12.13;8.45;;;10.60;92.40;;;;;;5011580;28;20229;-78
2021/04/14 11:01:10;;;;;;;11.00;8.00;;;10.50;92.70;;;;;;5005488;28;20229;-79
2021/04/14 11:03:37;;;;;;;10.25;8.45;;;10.50;93.10;;;;;;5007484;28;20210;-78
2021/04/14 11:06:06;;;;;;;8.60;7.75;;;10.50;93.40;;;;;;5011195;28;20205;-79
2021/04/14 11:08:35;;;;;;;9.55;8.07;;;10.60;93.20;;;;;;5006826;28;20620;-79
2021/04/14 11:11:02;;;;;;;9.85;7.55;;;10.70;93.30;;;;;;5007746;28;20206;-80
2021/04/14 11:13:31;;;;;;;13.02;7.70;;;10.90;93.50;;;;;;5008090;28;20206;-77
2021/04/14 11:15:58;;;;;;;13.30;8.40;;;11.00;93.40;;;;;;5008009;28;20209;-78
2021/04/14 11:18:34;;;;;;;8.43;7.63;;;11.20;92.90;;;;;;5006453;28;20454;-78
2021/04/14 11:21:07;;;;;;;12.13;8.30;;;11.30;92.60;;;;;;5004346;28;20257;-78
2021/04/14 11:23:36;;;;;;;10.20;7.93;;;11.30;91.00;;;;;;5006741;28;20242;-79
2021/04/14 11:26:09;;;;;;;10.70;8.15;;;11.30;90.80;;;;;;5004679;28;20487;-79
2021/04/14 11:28:42;;;;;;;9.50;8.53;;;11.40;90.90;;;;;;5007505;28;20587;-77
2021/04/14 11:31:10;;;;;;;12.60;8.40;;;11.50;90.70;;;;;;4996197;28;20460;-81
2021/04/14 11:33:39;;;;;;;8.18;7.38;;;11.40;86.00;;;;;;5009337;28;20209;-80
2021/04/14 11:36:17;;;;;;;12.38;8.20;;;11.40;85.80;;;;;;5004973;28;20201;-78
2021/04/14 11:38:45;;;;;;;11.63;7.60;;;11.30;88.50;;;;;;5009909;28;20202;-78
2021/04/14 11:41:21;;;;;;;9.73;7.13;;;11.30;89.70;;;;;;5004554;28;20463;-79
2021/04/14 11:43:48;;;;;;;8.57;7.50;;;11.30;90.40;;;;;;5008337;28;20203;-78
2021/04/14 11:46:28;;;;;;;10.45;7.88;;;11.20;90.70;;;;;;5005636;28;20202;-80
2021/04/14 11:48:57;;;;;;;11.90;7.45;;;11.10;87.40;;;;;;4999365;28;20862;-78
2021/04/14 11:51:36;;;;;;;10.27;7.47;;;10.90;86.70;;;;;;5003727;28;20214;-81
2021/04/14 11:54:06;;;;;;;10.63;8.18;;;10.90;88.40;;;;;;5001584;28;20205;-79
2021/04/14 11:56:56;;;;;;;9.20;8.30;;;10.80;88.90;;;;;;5006888;28;20198;-79
2021/04/14 11:59:28;;;;;;;8.82;7.22;;;10.80;89.10;;;;;;5005427;28;20252;-79
2021/04/14 12:01:58;;;;;;;11.60;8.48;;;10.80;89.70;;;;;;5006142;28;20199;-79
2021/04/14 12:04:25;;;;;;;7.82;7.13;;;10.90;89.80;;;;;;5004279;28;20203;-78
2021/04/14 12:06:52;;;;;;;9.63;7.10;;;10.90;88.00;;;;;;5008968;28;20209;-79
2021/04/14 12:09:18;;;;;;;12.52;8.20;;;11.00;89.10;;;;;;5006608;28;20237;-80
2021/04/14 12:11:44;;;;;;;8.00;6.97;;;11.20;90.40;;;;;;5006754;28;20226;-80
2021/04/14 12:14:11;;;;;;;11.55;7.43;;;11.40;91.70;;;;;;5003394;28;20203;-79
2021/04/14 12:16:38;;;;;;;12.00;8.35;;;11.50;91.20;;;;;;5003582;28;20837;-82
2021/04/14 12:19:05;;;;;;;10.80;8.65;;;11.30;92.60;;;;;;5005466;28;20201;-78
2021/04/14 12:21:32;;;;;;;14.38;8.27;;;11.10;92.90;;;;;;5008059;28;20582;-80
2021/04/14 12:23:59;;;;;;;13.30;8.85;;;10.90;93.30;;;;;;5006024;28;20217;-78
2021/04/14 12:26:26;;;;;;;10.30;9.27;;;10.60;93.90;;;;;;5011484;28;20203;-80
2021/04/14 12:28:52;;;;;;;11.45;8.40;;;10.40;94.60;;;;;;5003728;28;20231;-81
2021/04/14 12:31:19;;;;;;;11.35;9.13;;;10.20;94.10;;;;;;5003282;28;20218;-78
2021/04/14 12:33:46;;;;;;;11.35;9.52;;;10.00;94.40;;;;;;5007216;28;20232;-80
2021/04/14 12:36:12;;;;;;;10.50;8.75;;;9.90;95.20;;;;;;5005141;28;20210;-80
2021/04/14 12:38:39;;;;;;;9.68;7.82;;;9.80;95.20;;;;;;5010591;28;20212;-79
2021/04/14 12:41:05;;;;;;;12.13;10.10;;;9.70;94.80;;;;;;5004917;28;20229;-79
2021/04/14 12:43:31;;;;;;;9.32;8.43;;;9.80;94.90;;;;;;5007753;28;20201;-79
2021/04/14 12:45:58;;;;;;;10.48;8.00;;;9.80;94.00;;;;;;5003056;28;20652;-80
2021/04/14 12:48:27;;;;;;;13.10;9.35;;;9.70;94.20;;;;;;5003705;28;20659;-78
2021/04/14 12:51:08;;;;;;;11.07;9.15;;;9.80;94.10;;;;;;5005694;28;21043;-80
2021/04/14 12:53:38;;;;;;;10.25;8.75;;;9.80;93.90;;;;;;5000270;28;20600;-80
2021/04/14 12:56:06;;;;;;;11.75;9.25;;;9.90;93.80;;;;;;5001320;28;20284;-80
2021/04/14 12:58:36;;;;;;;10.00;8.93;;;10.00;93.70;;;;;;5001294;28;20668;-78
2021/04/14 13:01:04;;;;;;;10.48;9.15;;;10.10;94.10;;;;;;5000771;28;20236;-79
2021/04/14 13:03:38;;;;;;;14.43;10.60;;;10.30;93.80;;;;;;5003330;28;20242;-79
2021/04/14 13:06:10;;;;;;;12.65;10.48;;;10.40;93.20;;;;;;5004952;28;20204;-79